Mazatlan, SIN, Mexico
Current Conditions -  °F | °C
As of 12:47 PM on Thursday 18 Dec 2014 (Local Time) from MMMZ Reporting Station
Overcast Overcast  
Wind Chill: 75°   Ceiling: 10000
Heat Index: 75°   Visibility: 14mi
Dew Point: 57°   Wind: 9mph
Humidity: 53%   Direction: 230°SW
Pressure: 29.96"   Gusts: NA
Location:  23.22°N, 106.42°W
Report Text: MMMZ 181947Z 23008KT 14SM SCT090 OVC100 24/14 A2996 RMK 8/07/
Loading
Personal Weather Stations






























Interactive Weather Map New forecast layout! Learn more

10-Day Weather Forecast

Advertisements
Track Severe Weather on mobile